Flight Track Log - Related Links

Times and Time Zones

All times are in EDT time to prevent confusion due to time zone crossing. See the CTL18 flight status page for this flight to view local times or setup timezone preferences in your user account.


Time Position Orientation Groundspeed Altitude Reporting Facility
EDT Latitude Longitude Course Direction KTS MPH feet Rate Location/Type
Mon 09:27:31 PM 42.2261 -83.5472 234° Southwest 101 116 1,100  Level Cleveland Center
Mon 09:28:19 PM 42.2128 -83.5717 234° Southwest 97 112 1,800 783 Climbing Cleveland Center
Mon 09:29:26 PM 42.1853 -83.5872 203° Southwest 107 123 2,600 563 Climbing Cleveland Center
Mon 09:30:27 PM 42.1539 -83.5997 196° South 122 140 3,000 198 Climbing Cleveland Center
Mon 09:31:27 PM 42.1142 -83.6008 181° South 156 180 3,000  Level Cleveland Center
Mon 09:32:34 PM 42.0711 -83.5736 155° Southeast 172 198 3,000  Level Cleveland Center
Mon 09:33:29 PM 42.0433 -83.5192 124° Southeast 186 214 3,000 165 Level Cleveland Center
Mon 09:34:23 PM 42.0300 -83.4653 108° East 158 182 3,300 470 Climbing Cleveland Center
Mon 09:35:24 PM 42.0125 -83.4142 115° Southeast 155 178 3,900 541 Climbing Cleveland Center
Mon 09:36:25 PM 41.9972 -83.3633 112° Southeast 156 180 4,400 545 Climbing Cleveland Center
Mon 09:37:25 PM 41.9819 -83.3039 109° East 154 177 5,000 347 Climbing Cleveland Center
Mon 09:38:26 PM 41.9644 -83.2444 112° Southeast 169 194 5,100  Climbing Cleveland Center
Mon 09:39:26 PM 41.9431 -83.1850 116° Southeast 177 204 5,000 -52 Descending Cleveland Center
Mon 09:40:21 PM 41.9275 -83.1314 111° Southeast 178 205 5,000 51 Level Cleveland Center
Mon 09:41:23 PM 41.9078 -83.0719 114° Southeast 180 207 5,100  Climbing Cleveland Center
Mon 09:41:53 PM 41.8981 -83.0408 113° Southeast 175 201 5,000  Descending Cleveland Center
Mon 09:43:00 PM 41.8747 -82.9703 114° Southeast 178 205 5,100 47 Climbing Cleveland Center
Mon 09:44:01 PM 41.8572 -82.9056 110° East 180 207 5,100  Level Cleveland Center
Mon 09:45:01 PM 41.8397 -82.8436 111° Southeast 179 206 5,100  Level Cleveland Center
Mon 09:47:00 PM 41.8153 -82.7349 107° East  Level FlightAware Approximate
Mon 09:48:03 PM 41.7828 -82.6550 107° East 182 209 5,100  Level Cleveland Center
Mon 09:49:04 PM 41.7608 -82.5931 115° Southeast 179 206 5,100 -248 Level Cleveland Center
Mon 09:50:04 PM 41.7433 -82.5228 108° East 190 219 4,600 -496 Descending Cleveland Center
Mon 09:51:05 PM 41.7236 -82.4556 111° Southeast 202 232 4,100 -469 Descending Cleveland Center
Mon 09:52:12 PM 41.6997 -82.3825 114° Southeast 192 221 3,600 -472 Descending Cleveland Center
Mon 09:53:12 PM 41.6842 -82.3181 108° East 189 217 3,100 -496 Descending Cleveland Center
Mon 09:54:13 PM 41.6683 -82.2536 108° East 185 213 2,600 -446 Descending Cleveland Center
Mon 09:55:13 PM 41.6486 -82.1894 112° Southeast 183 211 2,200 -298 Descending Cleveland Center
Mon 09:56:14 PM 41.6306 -82.1278 111° Southeast 178 205 2,000 -49 Descending Cleveland Center
Mon 09:57:15 PM 41.6169 -82.0664 107° East 161 185 2,100 50 Climbing Cleveland Center
Mon 09:58:15 PM 41.6031 -82.0078 108° East 162 186 2,100 50 Level Cleveland Center
Mon 09:59:16 PM 41.5869 -81.9517 111° Southeast 162 186 2,200 -50 Climbing Cleveland Center
Mon 10:00:16 PM 41.5731 -81.8933 108° East 159 183 2,000 -99 Descending Cleveland Center
Mon 10:01:17 PM 41.5611 -81.8375 106° East 162 186 2,000  Level Cleveland Center
Mon 10:02:18 PM 41.5514 -81.7761 102° East 164 189 2,000 -297 Level Cleveland Center
Mon 10:04:19 PM 41.5336 -81.6761 103° East 110 127 1,100 -446 Descending Cleveland Center
Mon 10:06:00 PM 41.5167 -81.6667 108° East  Level FlightAware Approximate

Login

Don't have an account? Register now (free) for customized features, flight alerts, and more!